Time;durP1;ratioP1;P1;durP2;ratioP2;P2;SDS_P1;SDS_P2;PMS_P1;PMS_P2;Temp;Humidity;BMP_temperature;BMP_pressure;BME280_temperature;BME280_humidity;BME280_pressure;Samples;Min_cycle;Max_cycle;Signal;HPM_P1;HPM_P2
2022/10/01 00:00:55;;;;;;;28.95;23.52;;;;;;;15.86;60.19;99982.75;4986989;28;119702;-73
2022/10/01 00:03:24;;;;;;;41.37;23.17;;;;;;;15.86;60.22;99971.69;4987058;28;119542;-73
2022/10/01 00:06:11;;;;;;;37.17;23.63;;;;;;;15.89;59.91;99970.66;4984959;28;121235;-72
2022/10/01 00:08:39;;;;;;;38.17;22.25;;;;;;;15.89;59.41;99956.09;4985507;28;119824;-73
2022/10/01 00:11:22;;;;;;;26.80;23.27;;;;;;;15.90;60.44;99955.59;4973492;28;120206;-73
2022/10/01 00:13:49;;;;;;;28.20;21.75;;;;;;;15.92;59.88;99947.53;4968978;28;120389;-72
2022/10/01 00:16:18;;;;;;;43.22;23.42;;;;;;;15.89;59.85;99943.00;4967570;28;119626;-73
2022/10/01 00:18:46;;;;;;;27.87;22.07;;;;;;;15.95;59.82;99940.97;4966201;28;120075;-73
2022/10/01 00:21:14;;;;;;;29.38;21.27;;;;;;;15.95;59.66;99943.00;4967330;28;119394;-72
2022/10/01 00:23:41;;;;;;;29.95;21.15;;;;;;;15.95;59.62;99929.16;4949071;28;121010;-73
2022/10/01 00:26:10;;;;;;;30.05;21.05;;;;;;;15.96;58.94;99927.91;4965696;28;120099;-74
2022/10/01 00:28:35;;;;;;;27.85;21.05;;;;;;;15.96;59.41;99925.91;4966821;28;119384;-73
2022/10/01 00:31:01;;;;;;;42.70;21.40;;;;;;;15.99;59.72;99928.91;4966846;28;119556;-73
2022/10/01 00:33:27;;;;;;;24.00;20.40;;;;;;;16.01;58.99;99915.31;4966141;28;121037;-73
2022/10/01 00:35:53;;;;;;;27.97;19.53;;;;;;;16.03;59.78;99910.03;4970932;28;119298;-73
2022/10/01 00:38:19;;;;;;;40.03;20.88;;;;;;;16.03;60.00;99904.50;4965997;28;120788;-73
2022/10/01 00:40:45;;;;;;;25.75;20.73;;;;;;;16.07;59.66;99902.22;4966178;28;119955;-73
2022/10/01 00:43:34;;;;;;;39.78;20.15;;;;;;;16.06;59.60;99901.47;4966814;28;119338;-73
2022/10/01 00:46:06;;;;;;;28.95;18.83;;;;;;;16.05;59.07;99899.22;4966311;28;119681;-73
2022/10/01 00:48:59;;;;;;;37.25;19.42;;;;;;;16.04;59.26;99898.47;4964200;28;119615;-72
2022/10/01 00:51:31;;;;;;;23.42;18.67;;;;;;;16.04;59.07;99898.47;4965498;28;120124;-74
2022/10/01 00:54:04;;;;;;;28.42;18.17;;;;;;;16.04;59.09;99890.16;4966035;28;120179;-73
2022/10/01 00:56:31;;;;;;;27.33;18.05;;;;;;;16.01;59.18;99882.88;4966827;28;119306;-73
2022/10/01 00:58:59;;;;;;;26.50;17.30;;;;;;;16.05;59.49;99883.38;4969835;28;119728;-73
2022/10/01 01:01:25;;;;;;;34.70;17.83;;;;;;;16.08;59.41;99879.59;4966404;28;119840;-73
2022/10/01 01:03:54;;;;;;;24.42;17.40;;;;;;;16.07;59.36;99871.81;4966480;28;120087;-73
2022/10/01 01:06:20;;;;;;;32.50;17.95;;;;;;;16.07;59.56;99871.81;4964367;28;120123;-73
2022/10/01 01:08:47;;;;;;;19.40;15.97;;;;;;;16.08;58.95;99859.47;4966593;28;119422;-72
2022/10/01 01:11:21;;;;;;;18.93;15.90;;;;;;;16.07;58.83;99858.72;4966297;28;119741;-73
2022/10/01 01:14:12;;;;;;;20.95;16.10;;;;;;;16.06;59.34;99857.22;4965679;28;120290;-73
2022/10/01 01:16:48;;;;;;;31.60;16.02;;;;;;;16.07;58.50;99855.19;4965418;28;120038;-72
2022/10/01 01:19:46;;;;;;;23.58;15.43;;;;;;;16.09;57.96;99847.16;4974684;28;119676;-73
2022/10/01 01:22:14;;;;;;;23.85;15.18;;;;;;;16.10;58.68;99851.44;4968194;28;119790;-73
2022/10/01 01:24:50;;;;;;;22.50;14.98;;;;;;;16.10;58.11;99851.44;4986314;28;119668;-73
2022/10/01 01:27:32;;;;;;;27.65;15.52;;;;;;;16.11;59.18;99858.47;4986971;28;119348;-73
2022/10/01 01:30:07;;;;;;;22.40;14.52;;;;;;;16.13;59.09;99842.88;4984999;28;120533;-73
2022/10/01 01:32:51;;;;;;;25.73;14.98;;;;;;;16.12;59.11;99844.13;4967813;28;119939;-72
2022/10/01 01:35:30;;;;;;;31.83;15.05;;;;;;;16.12;58.62;99838.59;4966809;28;119553;-73
2022/10/01 01:38:00;;;;;;;30.27;14.40;;;;;;;16.14;59.11;99836.09;4979148;28;119674;-73
2022/10/01 01:40:29;;;;;;;19.88;13.93;;;;;;;16.16;59.06;99830.78;4989203;28;120352;-72
2022/10/01 01:42:57;;;;;;;17.58;13.68;;;;;;;16.11;58.73;99819.75;4977588;28;121024;-73
2022/10/01 01:45:27;;;;;;;20.98;13.48;;;;;;;16.08;58.58;99813.19;4973700;28;119831;-73
2022/10/01 01:47:56;;;;;;;23.27;13.30;;;;;;;16.11;59.27;99811.44;4970932;28;120073;-73
2022/10/01 01:50:24;;;;;;;26.25;12.90;;;;;;;16.15;59.35;99807.16;4988892;28;119841;-73
2022/10/01 01:52:52;;;;;;;29.67;13.05;;;;;;;16.15;58.99;99806.41;4988989;28;119445;-73
2022/10/01 01:55:18;;;;;;;26.55;13.05;;;;;;;16.16;58.38;99794.06;4988551;28;119817;-73
2022/10/01 01:57:46;;;;;;;21.73;12.23;;;;;;;16.14;58.81;99797.34;4988744;28;119815;-73
2022/10/01 02:00:13;;;;;;;23.90;12.32;;;;;;;16.15;58.82;99787.03;4987700;28;120264;-72
2022/10/01 02:02:42;;;;;;;20.92;12.60;;;;;;;16.15;59.12;99787.78;4970324;28;120313;-73
2022/10/01 02:05:12;;;;;;;13.52;11.60;;;;;;;16.16;58.76;99783.00;4987513;28;120492;-73
2022/10/01 02:08:11;;;;;;;17.63;11.65;;;;;;;16.13;58.77;99782.00;4976631;28;121502;-73
2022/10/01 02:10:46;;;;;;;22.77;11.90;;;;;;;16.13;58.83;99781.25;4967912;28;120042;-73
2022/10/01 02:13:59;;;;;;;19.63;11.73;;;;;;;16.13;58.60;99778.50;4968660;28;120441;-73
2022/10/01 02:16:31;;;;;;;22.52;10.98;;;;;;;16.12;58.55;99771.47;4962812;28;119553;-73
2022/10/01 02:19:04;;;;;;;19.20;10.98;;;;;;;16.14;59.16;99774.47;4968551;28;120019;-72
2022/10/01 02:22:11;;;;;;;23.67;11.27;;;;;;;16.10;58.34;99765.69;4978245;28;119822;-73
2022/10/01 02:25:04;;;;;;;23.35;10.98;;;;;;;16.06;58.87;99751.34;4906174;28;120303;-72
2022/10/01 02:27:40;;;;;;;21.50;10.70;;;;;;;16.06;58.67;99749.34;4984457;28;119810;-73
2022/10/01 02:30:08;;;;;;;16.50;10.55;;;;;;;16.07;58.63;99748.06;4990889;28;119630;-73
2022/10/01 02:32:37;;;;;;;19.90;10.50;;;;;;;16.07;58.72;99739.03;4972053;28;119899;-74
2022/10/01 02:35:07;;;;;;;22.02;10.25;;;;;;;16.06;58.70;99740.28;4968432;28;119641;-73
2022/10/01 02:37:35;;;;;;;18.27;10.60;;;;;;;16.02;58.46;99742.56;4966182;28;120013;-73
2022/10/01 02:40:12;;;;;;;22.30;10.20;;;;;;;16.04;58.85;99753.88;4968761;28;119921;-73
2022/10/01 02:42:40;;;;;;;25.10;10.15;;;;;;;16.04;59.12;99743.56;4968530;28;119464;-73
2022/10/01 02:45:07;;;;;;;15.67;9.80;;;;;;;16.02;58.70;99737.03;4966675;28;120462;-72
2022/10/01 02:47:37;;;;;;;21.63;10.05;;;;;;;16.05;59.18;99738.78;4967482;28;120057;-72
2022/10/01 02:50:05;;;;;;;25.67;10.13;;;;;;;16.05;59.15;99717.41;4965778;28;119783;-73
2022/10/01 02:53:03;;;;;;;14.48;9.85;;;;;;;16.10;58.85;99718.66;4967666;28;119908;-74
2022/10/01 02:55:34;;;;;;;21.53;10.13;;;;;;;16.07;58.80;99714.88;4964342;28;120184;-74
2022/10/01 02:58:00;;;;;;;19.85;10.38;;;;;;;16.09;59.65;99708.84;4965012;28;120207;-74
2022/10/01 03:00:26;;;;;;;19.75;9.50;;;;;;;16.08;59.10;99699.78;4981161;28;119991;-73
2022/10/01 03:02:52;;;;;;;17.50;9.43;;;;;;;16.07;58.53;99703.06;4964007;28;120062;-72
2022/10/01 03:05:19;;;;;;;14.27;9.60;;;;;;;16.04;58.46;99698.56;4966819;28;120074;-72
2022/10/01 03:07:45;;;;;;;14.27;9.02;;;;;;;16.02;58.91;99698.31;4967541;28;119602;-73
2022/10/01 03:10:12;;;;;;;26.15;9.52;;;;;;;16.01;59.06;99705.13;4966643;28;119703;-73
2022/10/01 03:12:42;;;;;;;15.73;9.50;;;;;;;16.02;59.42;99685.25;4967615;28;120339;-73
2022/10/01 03:15:09;;;;;;;14.00;8.97;;;;;;;16.03;59.42;99691.53;4970667;28;120030;-72
2022/10/01 03:17:37;;;;;;;13.75;8.90;;;;;;;15.98;58.73;99684.78;4965540;28;121313;-73
2022/10/01 03:20:12;;;;;;;13.23;8.20;;;;;;;15.96;59.13;99685.28;4967731;28;119928;-73
2022/10/01 03:22:37;;;;;;;16.85;8.85;;;;;;;15.96;59.52;99677.00;4968068;28;119918;-73
2022/10/01 03:25:04;;;;;;;14.23;8.87;;;;;;;15.93;59.13;99666.19;4971637;28;119772;-74
2022/10/01 03:27:29;;;;;;;13.32;8.82;;;;;;;15.93;59.42;99672.47;4986290;28;120493;-73
2022/10/01 03:29:55;;;;;;;14.50;8.35;;;;;;;15.99;59.15;99674.47;4987688;28;119388;-74
2022/10/01 03:32:21;;;;;;;28.63;8.67;;;;;;;15.97;59.69;99666.69;4986710;28;120230;-72
2022/10/01 03:34:46;;;;;;;13.83;8.37;;;;;;;15.96;59.30;99671.47;4986090;28;119879;-73
2022/10/01 03:37:13;;;;;;;25.13;9.30;;;;;;;15.98;59.84;99670.19;4982467;28;119843;-72
2022/10/01 03:39:38;;;;;;;27.13;9.73;;;;;;;15.98;60.08;99675.72;4966056;28;120141;-73
2022/10/01 03:42:04;;;;;;;18.83;9.87;;;;;;;15.98;60.14;99672.97;4966233;28;120026;-73
2022/10/01 03:44:31;;;;;;;14.80;9.10;;;;;;;15.95;59.80;99675.50;4966833;28;120163;-73
2022/10/01 03:46:57;;;;;;;19.27;8.85;;;;;;;15.91;60.45;99675.00;4967167;28;119655;-73
2022/10/01 03:49:22;;;;;;;14.57;8.98;;;;;;;15.89;60.54;99666.47;4954944;28;121359;-74
2022/10/01 03:51:49;;;;;;;19.80;9.82;;;;;;;15.86;61.16;99667.50;4965396;28;121768;-73
2022/10/01 03:54:15;;;;;;;21.05;9.88;;;;;;;15.83;60.92;99673.28;4967569;28;119817;-73
2022/10/01 03:56:41;;;;;;;13.43;9.65;;;;;;;15.79;61.15;99668.03;4967398;28;119487;-72
2022/10/01 03:59:09;;;;;;;22.05;9.75;;;;;;;15.74;60.74;99666.03;4970726;28;119547;-72
2022/10/01 04:01:35;;;;;;;21.13;9.73;;;;;;;15.68;61.76;99645.97;4966209;28;121976;-72
2022/10/01 04:04:02;;;;;;;23.50;10.18;;;;;;;15.72;62.42;99651.97;4966498;28;119406;-75
2022/10/01 04:06:29;;;;;;;28.15;10.13;;;;;;;15.69;61.99;99644.72;4971754;28;120015;-73
2022/10/01 04:08:58;;;;;;;15.77;9.77;;;;;;;15.67;61.70;99641.72;4987557;28;119946;-73
2022/10/01 04:11:27;;;;;;;15.95;10.05;;;;;;;15.66;61.81;99645.75;4976339;28;120340;-72
2022/10/01 04:13:53;;;;;;;22.90;10.80;;;;;;;15.64;62.70;99645.50;4967235;28;119258;-73
2022/10/01 04:16:18;;;;;;;19.70;10.27;;;;;;;15.61;62.20;99635.44;4966382;28;120803;-72
2022/10/01 04:18:44;;;;;;;26.90;11.05;;;;;;;15.59;62.58;99633.19;4965994;28;120011;-72
2022/10/01 04:21:11;;;;;;;14.50;10.80;;;;;;;15.62;62.66;99634.19;4973112;28;120142;-73
2022/10/01 04:23:37;;;;;;;13.00;10.73;;;;;;;15.54;62.03;99624.91;4966777;28;119698;-73
2022/10/01 04:26:03;;;;;;;23.90;12.27;;;;;;;15.53;63.28;99621.38;4932983;28;119838;-74
2022/10/01 04:28:30;;;;;;;23.13;12.52;;;;;;;15.55;63.70;99626.41;4967057;28;119801;-72
2022/10/01 04:31:23;;;;;;;21.63;12.20;;;;;;;15.49;63.83;99606.34;4965186;28;119431;-73
2022/10/01 04:33:41;;;;;;;21.25;12.55;;;;;;;15.52;63.85;99638.47;4978104;28;119861;-73
2022/10/01 04:36:07;;;;;;;28.63;13.93;;;;;;;15.45;64.51;99617.66;4987406;28;119381;-72
2022/10/01 04:38:33;;;;;;;27.45;14.15;;;;;;;15.43;64.53;99614.66;4966372;28;119874;-73
2022/10/01 04:40:59;;;;;;;22.55;14.80;;;;;;;15.41;65.17;99600.59;4974319;28;120223;-72
2022/10/01 04:43:24;;;;;;;22.48;15.30;;;;;;;15.39;64.78;99599.63;4977711;28;120158;-72
2022/10/01 04:45:50;;;;;;;36.75;16.67;;;;;;;15.35;65.56;99597.84;4979142;28;119799;-73
2022/10/01 04:48:16;;;;;;;32.22;16.13;;;;;;;15.35;65.22;99594.34;4985176;28;119686;-73
2022/10/01 04:50:43;;;;;;;24.20;16.20;;;;;;;15.27;65.38;99585.84;4980561;28;120086;-73
2022/10/01 04:53:09;;;;;;;25.33;16.38;;;;;;;15.30;65.82;99586.81;4989458;28;119808;-73
2022/10/01 04:55:34;;;;;;;27.02;16.92;;;;;;;15.33;66.01;99583.03;4988716;28;119531;-74
2022/10/01 04:58:00;;;;;;;27.55;16.23;;;;;;;15.34;65.90;99571.47;4989043;28;120602;-73
2022/10/01 05:00:26;;;;;;;31.60;15.27;;;;;;;15.32;65.60;99571.25;4973467;28;119903;-73
2022/10/01 05:03:04;;;;;;;28.10;16.43;;;;;;;15.33;66.02;99569.97;4973528;28;119741;-73
2022/10/01 05:05:31;;;;;;;23.73;14.87;;;;;;;15.30;65.93;99562.72;4970252;28;119929;-73
2022/10/01 05:07:57;;;;;;;20.50;13.80;;;;;;;15.29;65.87;99554.94;4968452;28;119180;-73
2022/10/01 05:10:23;;;;;;;24.10;14.20;;;;;;;15.25;66.53;99551.69;4968096;28;119998;-73
2022/10/01 05:12:50;;;;;;;19.85;13.38;;;;;;;15.23;66.56;99557.72;4969672;28;119859;-72
2022/10/01 05:15:17;;;;;;;26.50;13.00;;;;;;;15.19;66.67;99535.16;4969402;28;119820;-73
2022/10/01 05:17:43;;;;;;;14.17;11.50;;;;;;;15.21;66.18;99543.69;4967157;28;119821;-73
2022/10/01 05:20:16;;;;;;;21.65;13.07;;;;;;;15.18;67.29;99530.91;4981234;28;119890;-72
2022/10/01 05:22:43;;;;;;;24.13;13.10;;;;;;;15.18;67.03;99533.66;4970402;28;119783;-73
2022/10/01 05:25:09;;;;;;;25.73;13.30;;;;;;;15.15;67.10;99529.16;4973275;28;120018;-73
2022/10/01 05:27:36;;;;;;;20.70;12.40;;;;;;;15.16;67.07;99516.09;4978135;28;119909;-73
2022/10/01 05:30:05;;;;;;;20.23;13.10;;;;;;;15.15;67.51;99526.41;4978867;28;119969;-73
2022/10/01 05:32:31;;;;;;;20.80;12.47;;;;;;;15.16;67.29;99525.13;4985047;28;119647;-73
2022/10/01 05:34:57;;;;;;;17.67;12.67;;;;;;;15.13;67.10;99509.56;4989516;28;119749;-73
2022/10/01 05:37:32;;;;;;;23.07;12.60;;;;;;;15.15;67.47;99517.34;4987595;28;120251;-73
2022/10/01 05:39:58;;;;;;;33.83;13.27;;;;;;;15.15;67.40;99518.09;4978552;28;119874;-72
2022/10/01 05:42:24;;;;;;;18.83;14.30;;;;;;;15.15;67.35;99509.81;4968592;28;119946;-74
2022/10/01 05:44:51;;;;;;;24.05;13.75;;;;;;;15.14;67.52;99510.31;4967614;28;122019;-74
2022/10/01 05:47:17;;;;;;;25.70;14.05;;;;;;;15.13;67.67;99508.81;4972165;28;119594;-73
2022/10/01 05:49:46;;;;;;;19.93;13.63;;;;;;;15.13;67.71;99500.53;4968835;28;119324;-73
2022/10/01 05:52:13;;;;;;;18.43;14.03;;;;;;;15.14;67.66;99510.31;4951338;28;119790;-73
2022/10/01 05:54:40;;;;;;;25.47;14.20;;;;;;;15.10;67.87;99499.53;4969581;28;119286;-73
2022/10/01 05:57:07;;;;;;;23.15;14.02;;;;;;;15.13;67.72;99504.03;4970897;28;119990;-73
2022/10/01 05:59:33;;;;;;;17.98;13.68;;;;;;;15.10;67.68;99491.25;4969131;28;119721;-73
2022/10/01 06:01:59;;;;;;;20.65;14.90;;;;;;;15.11;67.87;99483.72;4969155;28;119359;-73
2022/10/01 06:04:25;;;;;;;19.48;14.27;;;;;;;15.09;67.73;99486.22;4968308;28;121564;-73
2022/10/01 06:06:55;;;;;;;21.40;15.30;;;;;;;15.10;67.79;99484.97;4968130;28;120128;-72
2022/10/01 06:09:21;;;;;;;18.38;13.82;;;;;;;15.06;67.98;99493.53;4977080;28;119869;-73
2022/10/01 06:12:10;;;;;;;16.25;13.40;;;;;;;15.05;67.92;99478.97;4961125;28;119644;-73
2022/10/01 06:14:36;;;;;;;21.85;14.25;;;;;;;15.07;68.52;99478.47;4968320;28;121021;-72
2022/10/01 06:17:02;;;;;;;21.48;14.35;;;;;;;15.08;68.49;99471.69;4967805;28;120358;-73
2022/10/01 06:19:27;;;;;;;20.50;14.32;;;;;;;15.08;68.17;99463.41;4969065;28;119324;-73
2022/10/01 06:21:53;;;;;;;16.83;13.27;;;;;;;15.04;67.79;99471.94;4969298;28;119661;-73
2022/10/01 06:24:25;;;;;;;17.83;13.35;;;;;;;14.98;67.88;99453.91;4966992;28;120046;-73
2022/10/01 06:26:51;;;;;;;17.03;13.43;;;;;;;14.99;68.37;99449.91;4967243;28;120278;-73
2022/10/01 06:29:17;;;;;;;17.13;13.13;;;;;;;15.01;68.09;99458.41;4971078;28;120182;-73
2022/10/01 06:31:42;;;;;;;30.90;14.53;;;;;;;15.00;68.25;99449.38;4968679;28;119864;-73
2022/10/01 06:34:08;;;;;;;18.03;13.93;;;;;;;15.00;68.43;99451.41;4967494;28;120130;-73
2022/10/01 06:36:34;;;;;;;18.13;13.77;;;;;;;15.00;68.43;99451.41;5000314;28;119630;-73
2022/10/01 06:38:59;;;;;;;15.63;12.77;;;;;;;14.94;68.12;99440.38;5000495;28;119795;-73
2022/10/01 06:41:25;;;;;;;17.38;13.50;;;;;;;14.97;68.54;99439.38;4972396;28;120154;-73
2022/10/01 06:43:51;;;;;;;22.10;14.63;;;;;;;14.98;68.65;99438.09;4967686;28;119621;-74
2022/10/01 06:46:17;;;;;;;16.20;13.45;;;;;;;14.92;68.46;99439.41;4967599;28;119753;-73
2022/10/01 06:49:03;;;;;;;17.08;13.75;;;;;;;14.89;68.28;99435.63;4968612;28;119312;-73
2022/10/01 06:54:13;;;;;;;21.58;14.55;;;;;;;14.92;68.99;99415.31;4986714;28;120233;-73
2022/10/01 06:56:39;;;;;;;24.52;14.35;;;;;;;14.99;69.25;99416.75;4972693;28;120230;-73
2022/10/01 06:59:05;;;;;;;15.60;12.17;;;;;;;14.99;68.78;99414.00;4968062;28;119642;-73
2022/10/01 07:01:31;;;;;;;26.87;13.63;;;;;;;15.02;68.71;99426.78;4967455;28;120147;-73
2022/10/01 07:03:58;;;;;;;20.27;13.95;;;;;;;15.05;68.89;99409.19;4970903;28;119896;-73
2022/10/01 07:06:26;;;;;;;19.95;12.57;;;;;;;15.04;68.21;99408.44;4967148;28;119943;-73
2022/10/01 07:09:26;;;;;;;18.13;12.57;;;;;;;15.03;68.98;99395.16;4918029;28;119603;-73
2022/10/01 07:11:52;;;;;;;17.83;12.50;;;;;;;15.07;68.95;99401.16;4958299;28;119757;-73
2022/10/01 07:14:21;;;;;;;21.30;12.05;;;;;;;15.06;68.60;99402.41;4976987;28;119982;-72
2022/10/01 07:16:47;;;;;;;23.70;12.13;;;;;;;15.09;68.93;99403.38;4967513;28;120059;-73
2022/10/01 07:19:15;;;;;;;17.50;11.60;;;;;;;14.99;69.18;99383.63;4967968;28;119999;-73
2022/10/01 07:21:41;;;;;;;16.80;11.50;;;;;;;15.07;69.18;99390.09;4971310;28;119707;-73
2022/10/01 07:24:07;;;;;;;17.27;11.68;;;;;;;15.11;69.03;99401.63;4966100;28;120209;-73
2022/10/01 07:26:32;;;;;;;18.23;11.65;;;;;;;15.12;68.35;99397.59;4958371;28;119771;-73
2022/10/01 07:28:59;;;;;;;16.13;11.35;;;;;;;15.08;68.96;99397.13;4947579;28;119570;-73
2022/10/01 07:31:25;;;;;;;18.85;11.32;;;;;;;15.11;68.86;99398.84;4968495;28;120211;-73
2022/10/01 07:33:56;;;;;;;18.77;11.30;;;;;;;15.12;69.35;99394.81;4964684;28;119900;-73
2022/10/01 07:36:22;;;;;;;23.55;10.82;;;;;;;15.10;68.94;99397.34;4970360;28;119591;-73
2022/10/01 07:38:50;;;;;;;11.65;10.35;;;;;;;15.11;69.20;99393.31;4965008;28;119910;-73
2022/10/01 07:41:16;;;;;;;21.02;10.77;;;;;;;15.08;68.90;99393.59;4967988;28;120031;-73
2022/10/01 07:43:42;;;;;;;17.83;10.98;;;;;;;15.05;69.10;99387.09;4963611;28;120475;-72
2022/10/01 07:46:09;;;;;;;15.02;10.63;;;;;;;15.09;68.88;99397.88;4966290;28;119862;-75
2022/10/01 07:48:34;;;;;;;23.55;11.43;;;;;;;15.05;69.08;99387.84;4998111;27;119517;-73
2022/10/01 07:51:33;;;;;;;17.60;10.50;;;;;;;15.11;69.17;99387.06;4917512;28;119744;-73
2022/10/01 07:53:58;;;;;;;17.53;11.37;;;;;;;15.11;69.27;99387.06;4962136;28;120259;-73
2022/10/01 07:56:54;;;;;;;18.95;11.13;;;;;;;15.12;69.44;99386.53;4960918;28;120070;-74
2022/10/01 07:59:26;;;;;;;15.23;11.23;;;;;;;15.11;69.31;99376.75;4969165;28;120879;-73
2022/10/01 08:01:57;;;;;;;19.30;10.77;;;;;;;15.17;69.38;99380.25;4966597;28;119702;-73
2022/10/01 08:07:08;;;;;;;12.90;9.95;;;;;;;15.17;68.73;99371.22;4976313;28;120086;-73
2022/10/01 08:09:34;;;;;;;17.02;10.07;;;;;;;15.15;69.13;99382.03;4959421;28;121112;-73
2022/10/01 08:12:01;;;;;;;24.03;11.20;;;;;;;15.15;69.61;99377.25;4967808;28;119713;-75
2022/10/01 08:14:27;;;;;;;21.38;10.90;;;;;;;15.15;69.72;99368.97;4958671;28;119840;-73
2022/10/01 08:16:54;;;;;;;15.90;9.52;;;;;;;15.17;68.94;99371.97;4961864;28;120309;-74
2022/10/01 08:19:20;;;;;;;17.65;10.10;;;;;;;15.17;69.47;99366.44;4964004;28;119994;-74
2022/10/01 08:21:46;;;;;;;16.98;11.00;;;;;;;15.14;69.72;99356.44;4963822;28;119842;-74
2022/10/01 08:24:12;;;;;;;19.60;10.00;;;;;;;15.09;69.28;99351.66;4959433;28;119806;-74
2022/10/01 08:26:38;;;;;;;14.48;10.38;;;;;;;15.21;69.48;99355.13;4961110;28;119594;-74
2022/10/01 08:29:04;;;;;;;19.90;10.77;;;;;;;15.21;69.94;99346.81;4967535;28;119852;-73
2022/10/01 08:31:30;;;;;;;17.20;10.00;;;;;;;15.21;69.83;99350.34;4960329;28;120717;-73
2022/10/01 08:33:56;;;;;;;10.75;9.65;;;;;;;15.24;69.48;99343.78;4973406;28;120425;-74
2022/10/01 08:36:22;;;;;;;24.00;10.27;;;;;;;15.25;69.45;99342.53;4972355;28;121835;-74
2022/10/01 08:39:06;;;;;;;16.85;8.95;;;;;;;15.28;69.43;99341.47;4970695;28;119953;-73
2022/10/01 08:41:41;;;;;;;17.00;9.10;;;;;;;15.30;69.70;99338.19;4977709;28;119946;-73
2022/10/01 08:44:18;;;;;;;14.17;9.53;;;;;;;15.34;69.92;99336.66;5004762;27;120277;-73
2022/10/01 08:46:45;;;;;;;17.67;10.07;;;;;;;15.39;70.06;99337.91;4968449;28;120510;-74
2022/10/01 08:49:20;;;;;;;18.27;9.40;;;;;;;15.45;69.33;99335.06;4972124;28;120029;-73
2022/10/01 08:52:08;;;;;;;14.57;9.05;;;;;;;15.47;69.40;99332.53;4968066;28;119953;-74
2022/10/01 08:54:41;;;;;;;16.98;9.48;;;;;;;15.46;69.51;99331.03;4973465;28;119687;-73
2022/10/01 08:57:40;;;;;;;13.60;9.10;;;;;;;15.49;69.37;99322.47;4972486;28;120023;-73
2022/10/01 09:00:13;;;;;;;21.60;10.17;;;;;;;15.49;69.57;99318.94;4972713;28;121143;-73
2022/10/01 09:02:41;;;;;;;11.85;8.85;;;;;;;15.52;69.65;99317.91;4972515;28;119477;-73
2022/10/01 09:05:16;;;;;;;16.40;9.70;;;;;;;15.52;69.71;99315.16;4974693;28;119547;-73
2022/10/01 09:08:00;;;;;;;14.50;10.00;;;;;;;15.54;69.76;99318.91;4972357;28;119640;-73
2022/10/01 09:10:42;;;;;;;23.08;10.23;;;;;;;15.52;69.56;99315.16;4973431;28;119935;-74
2022/10/01 09:13:46;;;;;;;21.70;11.50;;;;;;;15.55;69.84;99311.34;4970889;28;120704;-73
2022/10/01 09:16:30;;;;;;;19.57;12.43;;;;;;;15.58;69.93;99304.78;4972691;28;120107;-74
2022/10/01 09:19:24;;;;;;;17.83;9.90;;;;;;;15.59;69.49;99295.25;4970278;28;120303;-74
2022/10/01 09:21:56;;;;;;;17.37;10.50;;;;;;;15.60;69.42;99291.22;4958302;28;120963;-73
2022/10/01 09:24:45;;;;;;;22.15;10.23;;;;;;;15.63;69.75;99290.97;4974049;28;119817;-74
2022/10/01 09:27:17;;;;;;;14.05;10.40;;;;;;;15.65;69.77;99285.66;4972562;28;122130;-74
2022/10/01 09:29:46;;;;;;;19.73;10.38;;;;;;;15.63;69.67;99284.69;4978256;28;120192;-74
2022/10/01 09:32:16;;;;;;;23.95;11.32;;;;;;;15.70;69.65;99283.34;4969522;28;119869;-74
2022/10/01 09:34:44;;;;;;;21.55;12.10;;;;;;;15.69;70.22;99282.59;4971006;28;119658;-74
2022/10/01 09:37:20;;;;;;;13.98;11.48;;;;;;;15.74;69.94;99273.50;4970851;28;119902;-73
2022/10/01 09:39:50;;;;;;;17.60;12.00;;;;;;;15.75;69.74;99268.72;4970918;28;120252;-73
2022/10/01 09:42:17;;;;;;;26.97;12.20;;;;;;;15.73;69.93;99260.94;4969949;28;120374;-74
2022/10/01 09:44:46;;;;;;;17.58;12.13;;;;;;;15.76;69.65;99257.13;4968154;28;119495;-73
2022/10/01 09:47:19;;;;;;;22.27;13.00;;;;;;;15.81;69.78;99267.38;4966063;28;120268;-80
2022/10/01 09:49:47;;;;;;;22.67;14.15;;;;;;;15.80;69.59;99263.13;4970605;28;120004;-79
2022/10/01 09:52:49;;;;;;;23.65;14.23;;;;;;;15.74;69.74;99248.63;4936656;28;119551;-78
2022/10/01 09:55:23;;;;;;;20.67;16.00;;;;;;;15.77;69.79;99250.34;4971752;28;119949;-78
2022/10/01 09:58:13;;;;;;;20.77;16.63;;;;;;;15.81;69.83;99250.78;4973034;28;119848;-81
2022/10/01 10:00:40;;;;;;;22.80;18.57;;;;;;;15.82;70.12;99244.00;4967337;28;119918;-71
2022/10/01 10:03:06;;;;;;;28.52;18.42;;;;;;;15.84;70.35;99232.41;4962945;28;119940;-72
2022/10/01 10:05:42;;;;;;;22.97;19.13;;;;;;;15.93;70.26;99243.13;4965719;28;119932;-72
2022/10/01 10:08:20;;;;;;;32.40;20.55;;;;;;;15.96;70.51;99245.59;4965862;28;119871;-71
2022/10/01 10:11:07;;;;;;;30.53;19.73;;;;;;;16.02;69.99;99248.28;4972478;28;120614;-71
2022/10/01 10:13:37;;;;;;;27.92;20.15;;;;;;;16.07;70.59;99239.16;4971534;28;120022;-72
2022/10/01 10:16:36;;;;;;;25.70;19.67;;;;;;;16.16;70.45;99224.97;4975668;28;121772;-71
2022/10/01 10:19:23;;;;;;;32.83;21.83;;;;;;;16.20;70.35;99238.50;4977391;28;119861;-71
2022/10/01 10:21:55;;;;;;;27.08;20.42;;;;;;;16.26;70.30;99230.84;4964377;28;120429;-71
2022/10/01 10:24:33;;;;;;;27.58;18.10;;;;;;;16.30;70.57;99213.94;4972251;28;120050;-81
2022/10/01 10:27:01;;;;;;;23.63;17.00;;;;;;;16.45;71.20;99228.09;4978304;28;119624;-80
2022/10/01 10:29:29;;;;;;;32.20;15.45;;;;;;;16.51;70.95;99221.19;4973160;28;120128;-79
2022/10/01 10:31:56;;;;;;;22.70;14.23;;;;;;;16.69;71.13;99230.00;4974256;28;121925;-79
2022/10/01 10:34:24;;;;;;;29.65;13.45;;;;;;;16.81;71.20;99215.47;4973882;28;119700;-74
2022/10/01 10:36:56;;;;;;;34.50;13.38;;;;;;;16.92;71.32;99219.31;4972116;28;120003;-75
2022/10/01 10:39:30;;;;;;;26.10;12.10;;;;;;;17.11;71.70;99226.28;4955103;28;120514;-75
2022/10/01 10:42:28;;;;;;;34.05;9.43;;;;;;;17.27;71.51;99209.88;4921226;28;120223;-74
2022/10/01 10:45:01;;;;;;;35.03;8.75;;;;;;;17.58;71.08;99228.47;4965776;28;119863;-74
2022/10/01 10:47:28;;;;;;;38.85;7.25;;;;;;;17.66;70.08;99223.75;4967835;28;119425;-74
2022/10/01 10:49:57;;;;;;;27.50;6.25;;;;;;;17.74;70.05;99223.88;4965793;28;119687;-75
2022/10/01 10:52:29;;;;;;;32.15;6.07;;;;;;;17.86;70.47;99213.31;4970707;28;120049;-75
2022/10/01 10:54:56;;;;;;;31.00;5.85;;;;;;;18.10;70.55;99224.13;4964690;28;120118;-75
2022/10/01 10:57:29;;;;;;;28.63;5.80;;;;;;;18.40;70.43;99238.34;4968664;28;120385;-75
2022/10/01 11:00:00;;;;;;;33.05;4.93;;;;;;;18.60;69.66;99239.66;4965261;28;121045;-75
2022/10/01 11:02:29;;;;;;;23.70;4.10;;;;;;;18.76;69.10;99240.59;4963560;28;119805;-75
2022/10/01 11:04:58;;;;;;;27.53;4.57;;;;;;;18.82;68.45;99248.78;4960020;28;120458;-75
2022/10/01 11:07:26;;;;;;;24.05;4.28;;;;;;;18.85;68.69;99265.09;4962389;28;119716;-75
2022/10/01 11:10:07;;;;;;;25.60;3.97;;;;;;;18.89;68.46;99265.50;4961032;28;120203;-76
2022/10/01 11:12:55;;;;;;;16.65;4.30;;;;;;;18.93;67.96;99268.72;4956956;28;120513;-75
2022/10/01 11:15:30;;;;;;;19.80;3.83;;;;;;;18.99;67.90;99279.69;4958629;28;120388;-75
2022/10/01 11:18:02;;;;;;;32.88;4.60;;;;;;;19.02;68.01;99284.16;4964094;28;120020;-75
2022/10/01 11:20:59;;;;;;;22.17;3.60;;;;;;;19.08;67.89;99297.91;4963557;28;120503;-75
2022/10/01 11:24:01;;;;;;;18.73;3.20;;;;;;;19.17;67.71;99309.31;4948108;28;120164;-74
2022/10/01 11:26:36;;;;;;;23.70;3.88;;;;;;;19.27;67.09;99320.69;4965176;28;120256;-75
2022/10/01 11:29:20;;;;;;;21.20;3.67;;;;;;;19.32;67.21;99339.25;4952998;28;120123;-74
2022/10/01 11:32:02;;;;;;;22.13;3.33;;;;;;;19.15;67.33;99325.00;4969658;28;119647;-75
2022/10/01 11:34:47;;;;;;;19.80;3.53;;;;;;;19.17;67.12;99344.69;4923173;28;121149;-75
2022/10/01 11:37:23;;;;;;;20.48;3.85;;;;;;;19.18;67.47;99355.28;4981393;28;119569;-75